Halewood, United Kingdom
Current Conditions -  °F | °C
As of 9:20 AM on Friday 19 Dec 2014 (Local Time) from EGGP Reporting Station
Rain Showers Rain Showers  
Wind Chill: 36°   Ceiling: Unl
Heat Index: 45°   Visibility: 6mi
Dew Point: 39°   Wind: 21mph
Humidity: 81%   Direction: 270°W
Pressure: 29.85"   Gusts: NA
Location:  53.36°N, 2.83°W
Report Text: EGGP 190920Z 27018KT 9999 -SHRA FEW024 SCT034 07/04 Q1011
Loading
Personal Weather Stations






























Interactive Weather Map New forecast layout! Learn more

10-Day Weather Forecast

Advertisements
Track Severe Weather on mobile